createdAt,value
2023-05-11T00:00:26.946Z,14.61
2023-05-11T00:05:28.585Z,14.54
2023-05-11T00:10:30.417Z,14.51
2023-05-11T00:15:31.980Z,14.43
2023-05-11T00:20:33.605Z,14.41
2023-05-11T00:25:35.185Z,14.32
2023-05-11T00:30:36.793Z,14.34
2023-05-11T00:35:38.472Z,14.28
2023-05-11T00:40:40.209Z,14.21
2023-05-11T00:45:41.787Z,14.05
2023-05-11T00:50:43.612Z,14.02
2023-05-11T00:55:45.313Z,13.99
2023-05-11T01:00:49.558Z,14.02
2023-05-11T01:06:28.980Z,13.95
2023-05-11T01:11:36.403Z,13.90
2023-05-11T01:16:40.921Z,13.83
2023-05-11T01:21:43.858Z,13.80
2023-05-11T01:27:07.506Z,13.73
2023-05-11T01:32:15.947Z,13.66
2023-05-11T01:37:23.123Z,13.66
2023-05-11T01:42:30.567Z,13.67
2023-05-11T01:47:32.318Z,13.59
2023-05-11T01:52:35.628Z,13.58
2023-05-11T01:57:38.338Z,13.56
2023-05-11T02:02:41.409Z,13.54
2023-05-11T02:07:44.286Z,13.47
2023-05-11T02:12:46.717Z,13.40
2023-05-11T02:17:50.924Z,13.37
2023-05-11T02:22:54.003Z,13.36
2023-05-11T02:27:55.594Z,13.28
2023-05-11T02:32:59.161Z,13.21
2023-05-11T02:38:03.121Z,13.20
2023-05-11T02:43:11.525Z,13.20
2023-05-11T02:48:22.811Z,13.10
2023-05-11T02:53:27.830Z,13.07
2023-05-11T02:58:30.355Z,13.01
2023-05-11T03:03:44.995Z,13.04
2023-05-11T03:08:47.867Z,13.01
2023-05-11T03:13:51.285Z,12.96
2023-05-11T03:18:55.502Z,12.89
2023-05-11T03:23:57.956Z,12.88
2023-05-11T03:29:00.302Z,12.88
2023-05-11T03:34:01.995Z,12.88
2023-05-11T03:39:09.087Z,12.81
2023-05-11T03:44:12.195Z,12.88
2023-05-11T03:49:17.032Z,12.97
2023-05-11T03:54:18.772Z,13.05
2023-05-11T03:59:20.892Z,13.07
2023-05-11T04:04:29.843Z,13.22
2023-05-11T04:09:33.419Z,13.31
2023-05-11T04:14:35.037Z,13.43
2023-05-11T04:19:36.655Z,13.60
2023-05-11T04:24:38.804Z,13.74
2023-05-11T04:29:40.471Z,13.81
2023-05-11T04:34:42.497Z,13.83
2023-05-11T04:39:45.230Z,13.96
2023-05-11T04:44:47.029Z,14.05
2023-05-11T04:49:52.739Z,14.17
2023-05-11T04:54:54.585Z,14.31
2023-05-11T04:59:56.504Z,14.60
2023-05-11T05:04:58.388Z,14.81
2023-05-11T05:09:59.969Z,14.88
2023-05-11T05:15:01.552Z,15.00
2023-05-11T05:20:04.504Z,15.06
2023-05-11T05:25:06.723Z,15.09
2023-05-11T05:30:08.890Z,15.22
2023-05-11T05:35:10.640Z,15.31
2023-05-11T05:40:12.971Z,15.42
2023-05-11T05:45:22.201Z,15.73
2023-05-11T05:50:24.907Z,16.07
2023-05-11T05:55:26.846Z,16.24
2023-05-11T06:00:29.941Z,16.35
2023-05-11T06:05:38.182Z,16.50
2023-05-11T06:10:39.894Z,16.55
2023-05-11T06:15:44.115Z,16.72
2023-05-11T06:21:06.056Z,16.70
2023-05-11T06:26:08.149Z,16.82
2023-05-11T06:31:10.406Z,16.94
2023-05-11T06:36:14.407Z,16.87
2023-05-11T06:41:16.304Z,17.05
2023-05-11T06:46:18.086Z,17.19
2023-05-11T06:51:21.905Z,17.38
2023-05-11T06:56:23.606Z,17.34
2023-05-11T07:01:25.209Z,17.50
2023-05-11T07:06:27.676Z,17.53
2023-05-11T07:11:30.820Z,17.71
2023-05-11T07:16:32.544Z,17.79
2023-05-11T07:21:34.961Z,17.80
2023-05-11T07:26:36.534Z,18.02
2023-05-11T07:31:38.198Z,18.06
2023-05-11T07:36:39.820Z,18.16
2023-05-11T07:41:41.459Z,18.20
2023-05-11T07:46:43.127Z,18.15
2023-05-11T07:51:44.829Z,18.24
2023-05-11T07:56:46.424Z,18.18
2023-05-11T08:01:48.069Z,18.18
2023-05-11T08:06:49.868Z,18.43
2023-05-11T08:11:51.526Z,18.26
2023-05-11T08:16:53.263Z,18.37
2023-05-11T08:21:54.820Z,18.45
2023-05-11T08:26:56.714Z,18.43
2023-05-11T08:31:58.889Z,18.65
2023-05-11T08:37:04.379Z,18.57
2023-05-11T08:42:07.052Z,18.80
2023-05-11T08:47:21.242Z,19.07
2023-05-11T08:52:25.965Z,19.01
2023-05-11T08:57:29.266Z,19.09
2023-05-11T09:02:31.836Z,19.03
2023-05-11T09:07:37.298Z,19.32
2023-05-11T09:12:39.252Z,19.07
2023-05-11T09:17:40.930Z,19.41
2023-05-11T09:22:46.768Z,19.16
2023-05-11T09:27:48.631Z,19.35
2023-05-11T09:32:56.792Z,19.69
2023-05-11T09:38:12.250Z,19.69
2023-05-11T09:43:22.831Z,19.69
2023-05-11T09:48:26.676Z,19.91
2023-05-11T09:53:54.624Z,19.61
2023-05-11T09:58:57.547Z,19.79
2023-05-11T10:04:13.925Z,19.63
2023-05-11T10:09:24.740Z,20.08
2023-05-11T10:14:27.692Z,20.05
2023-05-11T10:19:29.292Z,19.79
2023-05-11T10:24:31.635Z,19.69
2023-05-11T10:29:34.172Z,20.05
2023-05-11T10:34:36.754Z,20.02
2023-05-11T10:39:41.802Z,20.07
2023-05-11T10:45:01.561Z,19.89
2023-05-11T10:50:14.991Z,19.86
2023-05-11T10:55:28.034Z,20.13
2023-05-11T11:00:48.247Z,20.64
2023-05-11T11:05:50.036Z,20.38
2023-05-11T11:10:51.922Z,20.17
2023-05-11T11:15:53.905Z,20.23
2023-05-11T11:20:57.131Z,20.38
2023-05-11T11:25:58.857Z,20.59
2023-05-11T11:31:23.423Z,20.86
2023-05-11T11:37:03.852Z,20.94
2023-05-11T11:42:07.259Z,20.97
2023-05-11T11:47:21.550Z,21.08
2023-05-11T11:52:29.121Z,20.95
2023-05-11T11:57:37.916Z,20.83
2023-05-11T12:02:44.255Z,20.88
2023-05-11T12:07:49.847Z,20.49
2023-05-11T12:12:55.032Z,20.55
2023-05-11T12:17:57.075Z,20.57
2023-05-11T12:22:58.777Z,20.65
2023-05-11T12:28:02.919Z,20.62
2023-05-11T12:33:07.965Z,20.57
2023-05-11T12:38:11.118Z,20.66
2023-05-11T12:43:17.996Z,20.58
2023-05-11T12:48:19.574Z,20.46
2023-05-11T12:53:22.099Z,20.44
2023-05-11T12:58:23.672Z,20.20
2023-05-11T13:03:30.513Z,20.24
2023-05-11T13:08:32.188Z,20.14
2023-05-11T13:13:33.783Z,20.02
2023-05-11T13:18:35.553Z,20.19
2023-05-11T13:23:37.175Z,20.12
2023-05-11T13:28:38.793Z,20.32
2023-05-11T13:33:40.420Z,20.25
2023-05-11T13:38:42.160Z,20.45
2023-05-11T13:43:45.031Z,20.51
2023-05-11T13:48:46.620Z,20.62
2023-05-11T13:53:48.486Z,20.62
2023-05-11T13:58:50.058Z,20.54
2023-05-11T14:03:52.706Z,20.62
2023-05-11T14:08:54.506Z,20.77
2023-05-11T14:13:56.172Z,20.72
2023-05-11T14:18:57.859Z,20.88
2023-05-11T14:24:10.874Z,20.78
2023-05-11T14:29:15.656Z,20.84
2023-05-11T14:34:17.761Z,20.84
2023-05-11T14:39:19.334Z,20.71
2023-05-11T14:44:25.260Z,20.74
2023-05-11T14:49:27.030Z,20.71
2023-05-11T14:54:28.563Z,20.75
2023-05-11T14:59:30.122Z,20.67
2023-05-11T15:04:33.661Z,20.81
2023-05-11T15:09:35.879Z,20.91
2023-05-11T15:14:37.440Z,20.78
2023-05-11T15:19:39.026Z,20.74
2023-05-11T15:24:41.204Z,20.80
2023-05-11T15:29:42.860Z,20.66
2023-05-11T15:34:58.679Z,20.64
2023-05-11T15:40:01.831Z,20.59
2023-05-11T15:45:03.630Z,20.41
2023-05-11T15:50:05.651Z,20.39
2023-05-11T15:55:07.702Z,20.26
2023-05-11T16:00:10.541Z,20.28
2023-05-11T16:05:12.255Z,20.18
2023-05-11T16:10:13.904Z,20.16
2023-05-11T16:15:15.689Z,20.09
2023-05-11T16:20:17.504Z,20.15
2023-05-11T16:25:19.291Z,20.08
2023-05-11T16:30:24.433Z,19.99
2023-05-11T16:35:27.066Z,20.05
2023-05-11T16:40:28.692Z,20.12
2023-05-11T16:45:30.290Z,20.06
2023-05-11T16:50:32.453Z,20.07
2023-05-11T16:55:34.061Z,20.01
2023-05-11T17:00:36.116Z,19.89
2023-05-11T17:05:37.764Z,19.82
2023-05-11T17:10:40.740Z,19.83
2023-05-11T17:15:42.316Z,19.79
2023-05-11T17:20:43.927Z,19.74
2023-05-11T17:25:45.519Z,19.67
2023-05-11T17:30:51.228Z,19.58
2023-05-11T17:35:52.826Z,19.58
2023-05-11T17:40:54.375Z,19.56
2023-05-11T17:45:56.044Z,19.50
2023-05-11T17:50:57.946Z,19.48
2023-05-11T17:55:59.946Z,19.41
2023-05-11T18:01:08.429Z,19.33
2023-05-11T18:06:10.102Z,19.26
2023-05-11T18:11:12.820Z,19.21
2023-05-11T18:16:14.654Z,19.18
2023-05-11T18:21:16.391Z,19.11
2023-05-11T18:26:19.229Z,19.10
2023-05-11T18:31:21.917Z,19.10
2023-05-11T18:36:23.781Z,19.06
2023-05-11T18:41:25.375Z,18.95
2023-05-11T18:46:27.158Z,18.95
2023-05-11T18:51:29.323Z,18.97
2023-05-11T18:56:30.978Z,18.91
2023-05-11T19:01:46.568Z,18.88
2023-05-11T19:06:49.463Z,18.83
2023-05-11T19:11:51.095Z,18.82
2023-05-11T19:16:52.771Z,18.77
2023-05-11T19:21:54.389Z,18.71
2023-05-11T19:27:06.458Z,18.68
2023-05-11T19:32:08.752Z,18.65
2023-05-11T19:37:10.452Z,18.62
2023-05-11T19:42:12.069Z,18.58
2023-05-11T19:47:13.729Z,18.56
2023-05-11T19:52:15.333Z,18.55
2023-05-11T19:57:17.302Z,18.50
2023-05-11T20:02:19.028Z,18.46
2023-05-11T20:07:20.753Z,18.34
2023-05-11T20:12:22.464Z,18.25
2023-05-11T20:17:24.117Z,18.29
2023-05-11T20:22:26.364Z,18.23
2023-05-11T20:27:27.945Z,18.19
2023-05-11T20:32:29.570Z,18.14
2023-05-11T20:37:32.201Z,18.13
2023-05-11T20:42:33.884Z,18.12
2023-05-11T20:47:35.498Z,17.95
2023-05-11T20:52:37.509Z,18.05
2023-05-11T20:57:39.334Z,17.98
2023-05-11T21:02:41.123Z,17.91
2023-05-11T21:07:42.723Z,17.92
2023-05-11T21:12:44.304Z,17.90
2023-05-11T21:17:46.085Z,17.89
2023-05-11T21:22:48.021Z,17.86
2023-05-11T21:27:49.603Z,17.82
2023-05-11T21:32:51.173Z,17.78
2023-05-11T21:37:52.777Z,17.81
2023-05-11T21:42:54.352Z,17.79
2023-05-11T21:47:56.161Z,17.80
2023-05-11T21:52:57.934Z,17.81
2023-05-11T21:57:59.701Z,17.73
2023-05-11T22:03:01.801Z,17.56
2023-05-11T22:08:13.813Z,17.64
2023-05-11T22:13:16.733Z,17.66
2023-05-11T22:18:18.615Z,17.65
2023-05-11T22:23:21.030Z,17.52
2023-05-11T22:28:22.911Z,17.62
2023-05-11T22:33:25.031Z,17.59
2023-05-11T22:38:26.861Z,17.55
2023-05-11T22:43:28.631Z,17.53
2023-05-11T22:48:30.395Z,17.54
2023-05-11T22:53:32.570Z,17.49
2023-05-11T22:58:34.280Z,17.38
2023-05-11T23:03:35.992Z,17.35
2023-05-11T23:08:37.631Z,17.39
2023-05-11T23:13:40.533Z,16.96
2023-05-11T23:18:44.012Z,17.27
2023-05-11T23:23:45.702Z,17.33
2023-05-11T23:28:47.272Z,17.26
2023-05-11T23:33:48.811Z,17.24
2023-05-11T23:38:50.371Z,17.24
2023-05-11T23:43:52.002Z,17.15
2023-05-11T23:48:53.564Z,17.02
2023-05-11T23:53:55.189Z,17.00
2023-05-11T23:58:56.733Z,16.75
